createdAt,value
2023-02-22T00:01:50.859Z,13.10
2023-02-22T00:03:53.906Z,13.10
2023-02-22T00:05:59.665Z,13.10
2023-02-22T00:08:02.386Z,13.00
2023-02-22T00:10:09.113Z,13.00
2023-02-22T00:12:11.908Z,13.00
2023-02-22T00:14:14.605Z,13.00
2023-02-22T00:16:20.532Z,13.00
2023-02-22T00:18:27.850Z,13.00
2023-02-22T00:20:30.834Z,13.00
2023-02-22T00:22:33.582Z,13.00
2023-02-22T00:24:36.278Z,12.90
2023-02-22T00:26:39.109Z,12.90
2023-02-22T00:28:42.418Z,12.90
2023-02-22T00:30:45.299Z,12.90
2023-02-22T00:32:48.305Z,12.90
2023-02-22T00:34:54.512Z,12.90
2023-02-22T00:36:57.249Z,12.90
2023-02-22T00:38:59.975Z,12.90
2023-02-22T00:41:02.745Z,12.90
2023-02-22T00:43:07.157Z,12.90
2023-02-22T00:45:10.858Z,12.80
2023-02-22T00:47:13.645Z,12.80
2023-02-22T00:49:16.663Z,12.90
2023-02-22T00:51:20.706Z,12.90
2023-02-22T00:53:24.571Z,12.90
2023-02-22T00:55:29.370Z,12.80
2023-02-22T00:57:34.567Z,12.80
2023-02-22T00:59:37.271Z,12.80
2023-02-22T01:01:40.128Z,12.80
2023-02-22T01:03:42.922Z,12.70
2023-02-22T01:05:45.872Z,12.70
2023-02-22T01:07:50.881Z,12.70
2023-02-22T01:09:53.698Z,12.70
2023-02-22T01:11:57.678Z,12.70
2023-02-22T01:14:00.548Z,12.70
2023-02-22T01:16:03.312Z,12.70
2023-02-22T01:18:07.065Z,12.70
2023-02-22T01:20:12.678Z,12.60
2023-02-22T01:22:15.412Z,12.60
2023-02-22T01:24:19.626Z,12.60
2023-02-22T01:26:22.341Z,12.60
2023-02-22T01:28:25.459Z,12.60
2023-02-22T01:30:30.491Z,12.60
2023-02-22T01:32:33.668Z,12.60
2023-02-22T01:34:36.388Z,12.60
2023-02-22T01:36:39.972Z,12.60
2023-02-22T01:38:42.847Z,12.70
2023-02-22T01:40:49.541Z,12.70
2023-02-22T01:42:54.827Z,12.70
2023-02-22T01:45:34.810Z,12.70
2023-02-22T01:47:37.873Z,12.70
2023-02-22T01:49:44.451Z,12.70
2023-02-22T01:51:49.629Z,12.70
2023-02-22T01:53:55.525Z,12.70
2023-02-22T01:56:00.475Z,12.70
2023-02-22T01:58:04.369Z,12.70
2023-02-22T02:00:10.981Z,12.70
2023-02-22T02:02:15.510Z,12.80
2023-02-22T02:04:25.368Z,12.80
2023-02-22T02:06:29.984Z,12.80
2023-02-22T02:08:37.778Z,12.80
2023-02-22T02:10:41.680Z,12.80
2023-02-22T02:12:48.689Z,12.80
2023-02-22T02:14:51.577Z,12.80
2023-02-22T02:16:56.186Z,12.80
2023-02-22T02:18:59.145Z,12.80
2023-02-22T02:21:33.999Z,12.90
2023-02-22T02:23:59.963Z,12.80
2023-02-22T02:26:35.154Z,12.80
2023-02-22T02:29:07.513Z,12.80
2023-02-22T02:31:54.288Z,12.80
2023-02-22T02:34:03.100Z,12.80
2023-02-22T02:36:11.858Z,12.80
2023-02-22T02:38:23.643Z,12.80
2023-02-22T02:40:30.503Z,12.80
2023-02-22T02:42:39.135Z,12.90
2023-02-22T02:44:48.014Z,12.80
2023-02-22T02:46:57.639Z,12.80
2023-02-22T02:49:04.586Z,12.80
2023-02-22T02:51:14.248Z,12.80
2023-02-22T02:53:21.637Z,12.90
2023-02-22T02:55:25.020Z,12.90
2023-02-22T02:57:27.859Z,12.90
2023-02-22T02:59:33.104Z,12.80
2023-02-22T03:01:58.782Z,12.80
2023-02-22T03:04:20.328Z,12.90
2023-02-22T03:06:37.867Z,12.80
2023-02-22T03:08:44.592Z,12.80
2023-02-22T03:10:56.395Z,12.90
2023-02-22T03:13:06.235Z,12.90
2023-02-22T03:15:21.861Z,12.80
2023-02-22T03:17:33.310Z,12.90
2023-02-22T03:19:41.393Z,12.90
2023-02-22T03:21:50.935Z,12.80
2023-02-22T03:24:06.440Z,12.90
2023-02-22T03:26:13.930Z,12.80
2023-02-22T03:28:20.638Z,12.80
2023-02-22T03:30:28.520Z,12.80
2023-02-22T03:32:38.665Z,12.70
2023-02-22T03:34:45.863Z,12.70
2023-02-22T03:36:51.918Z,12.70
2023-02-22T03:38:56.436Z,12.60
2023-02-22T03:41:03.713Z,12.60
2023-02-22T03:43:10.063Z,12.50
2023-02-22T03:45:16.295Z,12.50
2023-02-22T03:47:24.143Z,12.50
2023-02-22T03:49:35.945Z,12.40
2023-02-22T03:51:39.605Z,12.40
2023-02-22T03:53:44.535Z,12.40
2023-02-22T03:55:51.572Z,12.40
2023-02-22T03:57:58.493Z,12.40
2023-02-22T04:00:01.420Z,12.40
2023-02-22T04:02:04.411Z,12.40
2023-02-22T04:04:07.207Z,12.40
2023-02-22T04:06:12.418Z,12.40
2023-02-22T04:08:15.488Z,12.30
2023-02-22T04:10:18.571Z,12.30
2023-02-22T04:12:21.271Z,12.30
2023-02-22T04:14:24.059Z,12.20
2023-02-22T04:16:26.819Z,12.10
2023-02-22T04:18:29.531Z,12.10
2023-02-22T04:20:32.345Z,12.10
2023-02-22T04:22:36.374Z,12.20
2023-02-22T04:24:39.153Z,12.20
2023-02-22T04:26:42.527Z,12.20
2023-02-22T04:28:45.224Z,12.20
2023-02-22T04:30:47.992Z,12.30
2023-02-22T04:32:51.034Z,12.30
2023-02-22T04:34:53.746Z,12.30
2023-02-22T04:36:56.476Z,12.30
2023-02-22T04:39:00.990Z,12.30
2023-02-22T04:41:03.801Z,12.30
2023-02-22T04:43:06.509Z,12.30
2023-02-22T04:45:10.784Z,12.40
2023-02-22T04:47:13.479Z,12.40
2023-02-22T04:49:16.208Z,12.40
2023-02-22T04:51:19.856Z,12.50
2023-02-22T04:53:22.857Z,12.50
2023-02-22T04:55:28.062Z,12.50
2023-02-22T04:57:30.882Z,12.60
2023-02-22T04:59:33.877Z,12.60
2023-02-22T05:01:37.941Z,12.60
2023-02-22T05:03:40.692Z,12.60
2023-02-22T05:05:43.397Z,12.60
2023-02-22T05:07:46.294Z,12.60
2023-02-22T05:09:49.033Z,12.60
2023-02-22T05:11:53.108Z,12.60
2023-02-22T05:13:55.868Z,12.50
2023-02-22T05:15:59.007Z,12.50
2023-02-22T05:18:01.870Z,12.50
2023-02-22T05:20:06.769Z,12.50
2023-02-22T05:22:09.488Z,12.50
2023-02-22T05:24:12.209Z,12.40
2023-02-22T05:26:14.903Z,12.40
2023-02-22T05:28:18.932Z,12.30
2023-02-22T05:30:24.246Z,12.30
2023-02-22T05:32:27.963Z,12.30
2023-02-22T05:34:30.824Z,12.30
2023-02-22T05:36:33.537Z,12.30
2023-02-22T05:38:43.415Z,12.30
2023-02-22T05:40:46.281Z,12.20
2023-02-22T05:42:49.214Z,12.10
2023-02-22T05:44:53.328Z,12.10
2023-02-22T05:46:56.031Z,12.00
2023-02-22T05:48:58.805Z,11.90
2023-02-22T05:51:01.522Z,11.80
2023-02-22T05:53:05.578Z,11.80
2023-02-22T05:55:09.975Z,11.60
2023-02-22T05:57:12.775Z,11.50
2023-02-22T05:59:16.160Z,11.40
2023-02-22T06:01:20.914Z,11.30
2023-02-22T06:03:23.691Z,11.20
2023-02-22T06:05:27.002Z,11.20
2023-02-22T06:07:30.049Z,11.10
2023-02-22T06:09:32.819Z,11.10
2023-02-22T06:11:35.521Z,11.10
2023-02-22T06:13:38.642Z,11.10
2023-02-22T06:15:41.333Z,11.10
2023-02-22T06:17:46.302Z,11.00
2023-02-22T06:19:49.034Z,10.90
2023-02-22T06:21:52.008Z,10.90
2023-02-22T06:23:54.786Z,10.80
2023-02-22T06:25:57.477Z,10.80
2023-02-22T06:28:01.356Z,10.80
2023-02-22T06:30:04.368Z,10.70
2023-02-22T06:32:07.080Z,10.70
2023-02-22T06:34:11.407Z,10.70
2023-02-22T06:36:14.162Z,10.70
2023-02-22T06:38:23.122Z,10.70
2023-02-22T06:40:29.312Z,10.70
2023-02-22T06:42:32.054Z,10.70
2023-02-22T06:44:34.777Z,10.70
2023-02-22T06:46:37.765Z,10.70
2023-02-22T06:48:41.042Z,10.70
2023-02-22T06:50:45.108Z,10.70
2023-02-22T06:52:48.453Z,10.70
2023-02-22T06:54:51.801Z,10.70
2023-02-22T06:56:54.522Z,10.70
2023-02-22T06:58:57.260Z,10.70
2023-02-22T07:01:02.550Z,10.80
2023-02-22T07:03:05.974Z,10.80
2023-02-22T07:05:08.941Z,10.80
2023-02-22T07:07:12.971Z,10.90
2023-02-22T07:09:16.614Z,10.90
2023-02-22T07:11:19.545Z,11.00
2023-02-22T07:13:22.343Z,11.10
2023-02-22T07:15:27.853Z,11.10
2023-02-22T07:17:30.602Z,11.10
2023-02-22T07:19:33.299Z,11.20
2023-02-22T07:21:35.970Z,11.20
2023-02-22T07:23:40.038Z,11.30
2023-02-22T07:25:43.720Z,11.40
2023-02-22T07:27:47.275Z,11.40
2023-02-22T07:29:50.011Z,11.50
2023-02-22T07:31:52.725Z,11.60
2023-02-22T07:33:55.490Z,11.70
2023-02-22T07:35:58.533Z,11.80
2023-02-22T07:38:01.358Z,11.80
2023-02-22T07:40:05.873Z,11.90
2023-02-22T07:42:08.918Z,12.00
2023-02-22T07:44:12.954Z,12.10
2023-02-22T07:46:15.900Z,12.30
2023-02-22T07:48:20.857Z,12.40
2023-02-22T07:50:25.177Z,12.40
2023-02-22T07:52:27.880Z,12.50
2023-02-22T07:54:30.570Z,12.60
2023-02-22T07:56:34.558Z,12.70
2023-02-22T07:58:37.292Z,12.80
2023-02-22T08:00:41.390Z,12.80
2023-02-22T08:02:44.668Z,12.80
2023-02-22T08:04:47.390Z,13.00
2023-02-22T08:06:50.202Z,13.10
2023-02-22T08:08:52.913Z,13.10
2023-02-22T08:10:57.169Z,13.30
2023-02-22T08:13:01.517Z,13.40
2023-02-22T08:15:05.127Z,13.40
2023-02-22T08:17:08.916Z,13.50
2023-02-22T08:19:11.790Z,13.50
2023-02-22T08:21:14.672Z,13.70
2023-02-22T08:23:19.239Z,13.80
2023-02-22T08:25:25.250Z,13.80
2023-02-22T08:27:29.425Z,13.80
2023-02-22T08:29:33.692Z,13.80
2023-02-22T08:31:36.388Z,13.90
2023-02-22T08:33:39.194Z,14.00
2023-02-22T08:35:41.995Z,14.00
2023-02-22T08:37:45.072Z,14.00
2023-02-22T08:39:47.793Z,14.00
2023-02-22T08:41:50.492Z,14.10
2023-02-22T08:43:53.499Z,14.20
2023-02-22T08:45:58.020Z,14.10
2023-02-22T08:48:00.958Z,14.00
2023-02-22T08:50:04.058Z,14.10
2023-02-22T08:52:06.822Z,14.20
2023-02-22T08:54:09.521Z,14.30
2023-02-22T08:56:12.730Z,14.40
2023-02-22T08:58:15.426Z,14.50
2023-02-22T09:00:19.387Z,14.60
2023-02-22T09:02:24.898Z,14.70
2023-02-22T09:04:27.642Z,14.70
2023-02-22T09:06:30.888Z,14.80
2023-02-22T09:08:33.643Z,14.90
2023-02-22T09:10:36.999Z,15.00
2023-02-22T09:12:39.689Z,15.10
2023-02-22T09:14:42.985Z,15.10
2023-02-22T09:16:46.312Z,15.30
2023-02-22T09:18:50.400Z,15.40
2023-02-22T09:20:53.441Z,15.40
2023-02-22T09:22:56.363Z,15.50
2023-02-22T09:25:02.596Z,15.50
2023-02-22T09:27:12.156Z,15.60
2023-02-22T09:29:15.029Z,15.60
2023-02-22T09:31:18.284Z,15.60
2023-02-22T09:33:22.524Z,15.60
2023-02-22T09:35:27.833Z,15.60
2023-02-22T09:37:30.912Z,15.50
2023-02-22T09:39:37.712Z,15.50
2023-02-22T09:41:47.669Z,15.70
2023-02-22T09:43:56.030Z,15.80
2023-02-22T09:46:24.329Z,15.80
2023-02-22T09:48:32.015Z,15.90
2023-02-22T09:50:42.229Z,16.10
2023-02-22T09:52:54.906Z,16.20
2023-02-22T09:55:08.150Z,16.20
2023-02-22T09:57:16.153Z,16.30
2023-02-22T09:59:26.969Z,16.40
2023-02-22T10:01:33.149Z,16.50
2023-02-22T10:03:41.729Z,16.60
2023-02-22T10:05:52.929Z,16.60
2023-02-22T10:08:01.040Z,16.60
2023-02-22T10:10:06.404Z,16.50
2023-02-22T10:12:15.652Z,16.50
2023-02-22T10:14:35.634Z,16.50
2023-02-22T10:16:44.073Z,16.50
2023-02-22T10:19:27.807Z,16.60
2023-02-22T10:21:57.625Z,16.70
2023-02-22T10:24:11.363Z,16.80
2023-02-22T10:26:17.734Z,16.80
2023-02-22T10:28:24.771Z,16.90
2023-02-22T10:30:33.864Z,17.00
2023-02-22T10:32:45.339Z,17.10
2023-02-22T10:34:51.415Z,17.20
2023-02-22T10:37:01.316Z,17.30
2023-02-22T10:39:16.468Z,17.30
2023-02-22T10:41:27.222Z,17.30
2023-02-22T10:43:30.646Z,17.30
2023-02-22T10:45:37.046Z,17.30
2023-02-22T10:47:40.812Z,17.40
2023-02-22T10:49:47.583Z,17.50
2023-02-22T10:52:01.337Z,17.60
2023-02-22T10:54:26.700Z,17.60
2023-02-22T10:56:29.528Z,17.60
2023-02-22T10:58:41.746Z,17.60
2023-02-22T11:00:46.654Z,17.60
2023-02-22T11:02:53.603Z,17.70
2023-02-22T11:04:58.558Z,17.70
2023-02-22T11:07:21.966Z,17.80
2023-02-22T11:09:24.747Z,17.70
2023-02-22T11:11:29.163Z,17.70
2023-02-22T11:13:34.366Z,17.90
2023-02-22T11:15:37.381Z,18.00
2023-02-22T11:17:41.619Z,17.90
2023-02-22T11:19:48.368Z,18.00
2023-02-22T11:21:53.011Z,18.20
2023-02-22T11:24:05.007Z,18.20
2023-02-22T11:26:11.073Z,18.20
2023-02-22T11:28:30.637Z,18.30
2023-02-22T11:30:35.462Z,18.30
2023-02-22T11:32:45.520Z,18.30
2023-02-22T11:34:52.818Z,18.30
2023-02-22T11:36:58.289Z,18.30
2023-02-22T11:39:01.138Z,18.40
2023-02-22T11:41:15.572Z,18.50
2023-02-22T11:43:19.962Z,18.50
2023-02-22T11:45:24.885Z,18.60
2023-02-22T11:47:27.713Z,18.50
2023-02-22T11:49:35.416Z,18.50
2023-02-22T11:51:49.747Z,18.60
2023-02-22T11:54:25.487Z,18.70
2023-02-22T11:56:38.206Z,18.60
2023-02-22T11:58:47.407Z,18.60
2023-02-22T12:00:58.615Z,18.60
2023-02-22T12:03:28.890Z,18.60
2023-02-22T12:05:44.801Z,18.70
2023-02-22T12:08:10.736Z,18.50
2023-02-22T12:10:30.272Z,18.50
2023-02-22T12:12:49.021Z,18.60
2023-02-22T12:15:00.292Z,18.70
2023-02-22T12:17:20.541Z,18.80
2023-02-22T12:19:31.720Z,18.80
2023-02-22T12:21:39.596Z,18.90
2023-02-22T12:23:47.010Z,18.90
2023-02-22T12:25:58.777Z,19.00
2023-02-22T12:28:24.207Z,19.00
2023-02-22T12:30:31.147Z,19.10
2023-02-22T12:32:41.589Z,19.10
2023-02-22T12:34:49.369Z,19.20
2023-02-22T12:36:57.053Z,19.10
2023-02-22T12:39:07.486Z,19.10
2023-02-22T12:41:18.358Z,19.30
2023-02-22T12:43:28.008Z,19.30
2023-02-22T12:45:35.726Z,19.40
2023-02-22T12:47:46.746Z,19.40
2023-02-22T12:49:55.914Z,19.30
2023-02-22T12:52:20.389Z,19.50
2023-02-22T12:54:38.900Z,19.60
2023-02-22T12:56:46.009Z,19.70
2023-02-22T12:58:56.723Z,19.70
2023-02-22T13:01:06.693Z,19.70
2023-02-22T13:03:31.742Z,19.70
2023-02-22T13:05:37.875Z,19.70
2023-02-22T13:07:50.148Z,19.80
2023-02-22T13:10:11.811Z,20.00
2023-02-22T13:12:20.078Z,20.10
2023-02-22T13:14:39.470Z,20.20
2023-02-22T13:16:52.637Z,20.30
2023-02-22T13:19:03.720Z,20.40
2023-02-22T13:21:16.968Z,20.50
2023-02-22T13:23:30.024Z,20.40
2023-02-22T13:25:41.131Z,20.30
2023-02-22T13:27:47.924Z,20.30
2023-02-22T13:29:57.378Z,20.40
2023-02-22T13:32:18.256Z,20.40
2023-02-22T13:34:40.093Z,20.20
2023-02-22T13:37:04.047Z,20.20
2023-02-22T13:39:54.024Z,20.30
2023-02-22T13:42:14.111Z,20.40
2023-02-22T13:44:34.677Z,20.50
2023-02-22T13:47:08.871Z,20.40
2023-02-22T13:49:31.074Z,20.30
2023-02-22T13:51:49.355Z,20.30
2023-02-22T13:53:57.354Z,20.30
2023-02-22T13:56:02.263Z,20.20
2023-02-22T13:58:07.450Z,20.20
2023-02-22T14:00:25.830Z,20.10
2023-02-22T14:03:02.120Z,20.00
2023-02-22T14:05:49.657Z,20.00
2023-02-22T14:07:52.713Z,20.10
2023-02-22T14:09:57.468Z,20.00
2023-02-22T14:12:00.488Z,20.00
2023-02-22T14:14:18.307Z,19.80
2023-02-22T14:16:26.953Z,19.90
2023-02-22T14:18:34.290Z,20.00
2023-02-22T14:20:38.197Z,20.00
2023-02-22T14:22:41.578Z,20.00
2023-02-22T14:24:46.941Z,20.10
2023-02-22T14:27:02.228Z,20.10
2023-02-22T14:29:17.344Z,20.10
2023-02-22T14:31:34.807Z,20.10
2023-02-22T14:33:55.726Z,19.90
2023-02-22T14:35:58.516Z,20.00
2023-02-22T14:38:03.013Z,19.90
2023-02-22T14:40:15.548Z,19.90
2023-02-22T14:42:23.267Z,19.80
2023-02-22T14:44:31.330Z,19.70
2023-02-22T14:46:40.534Z,19.70
2023-02-22T14:48:47.202Z,19.70
2023-02-22T14:50:55.293Z,19.60
2023-02-22T14:53:02.602Z,19.60
2023-02-22T14:55:17.037Z,19.60
2023-02-22T14:57:27.881Z,19.50
2023-02-22T14:59:34.720Z,19.30
2023-02-22T15:02:05.935Z,19.30
2023-02-22T15:04:18.470Z,19.30
2023-02-22T15:06:25.824Z,19.30
2023-02-22T15:08:29.191Z,19.30
2023-02-22T15:10:42.655Z,19.30
2023-02-22T15:12:52.825Z,19.30
2023-02-22T15:15:18.542Z,19.30
2023-02-22T15:17:24.755Z,19.30
2023-02-22T15:19:29.971Z,19.20
2023-02-22T15:21:35.025Z,19.20
2023-02-22T15:23:43.635Z,19.20
2023-02-22T15:25:50.398Z,19.20
2023-02-22T15:27:53.449Z,19.10
2023-02-22T15:30:04.412Z,19.10
2023-02-22T15:32:21.113Z,19.10
2023-02-22T15:34:29.022Z,19.00
2023-02-22T15:36:31.772Z,18.90
2023-02-22T15:38:35.854Z,18.90
2023-02-22T15:40:43.113Z,18.70
2023-02-22T15:42:49.146Z,18.70
2023-02-22T15:44:54.759Z,18.70
2023-02-22T15:46:58.419Z,18.50
2023-02-22T15:49:20.401Z,18.40
2023-02-22T15:51:23.094Z,18.40
2023-02-22T15:53:30.976Z,18.30
2023-02-22T15:55:37.722Z,18.20
2023-02-22T15:57:40.480Z,18.10
2023-02-22T15:59:46.519Z,18.20
2023-02-22T16:01:53.007Z,18.10
2023-02-22T16:03:59.216Z,18.10
2023-02-22T16:06:02.638Z,17.90
2023-02-22T16:08:15.626Z,17.70
2023-02-22T16:10:28.040Z,17.60
2023-02-22T16:12:32.110Z,17.60
2023-02-22T16:14:44.947Z,17.60
2023-02-22T16:16:47.756Z,17.60
2023-02-22T16:18:52.164Z,17.60
2023-02-22T16:21:17.083Z,17.50
2023-02-22T16:23:24.565Z,17.30
2023-02-22T16:25:33.113Z,17.30
2023-02-22T16:27:47.289Z,17.20
2023-02-22T16:30:23.252Z,17.20
2023-02-22T16:32:26.580Z,17.10
2023-02-22T16:34:29.328Z,17.00
2023-02-22T16:36:41.317Z,16.90
2023-02-22T16:38:47.122Z,16.90
2023-02-22T16:40:54.868Z,16.80
2023-02-22T16:42:59.903Z,16.70
2023-02-22T16:45:02.747Z,16.70
2023-02-22T16:47:05.575Z,16.60
2023-02-22T16:49:08.317Z,16.60
2023-02-22T16:51:17.694Z,16.50
2023-02-22T16:53:24.708Z,16.40
2023-02-22T16:55:27.807Z,16.30
2023-02-22T16:57:33.010Z,16.20
2023-02-22T16:59:40.491Z,16.10
2023-02-22T17:01:44.003Z,16.10
2023-02-22T17:03:47.847Z,16.00
2023-02-22T17:05:51.089Z,15.80
2023-02-22T17:07:53.832Z,15.70
2023-02-22T17:09:58.315Z,15.80
2023-02-22T17:12:02.191Z,15.70
2023-02-22T17:14:06.104Z,15.50
2023-02-22T17:16:14.408Z,15.30
2023-02-22T17:18:22.577Z,15.40
2023-02-22T17:20:30.048Z,15.40
2023-02-22T17:22:32.787Z,15.30
2023-02-22T17:24:35.962Z,15.30
2023-02-22T17:26:39.026Z,15.20
2023-02-22T17:28:43.611Z,15.20
2023-02-22T17:30:48.796Z,15.10
2023-02-22T17:32:53.427Z,15.00
2023-02-22T17:34:56.131Z,15.00
2023-02-22T17:36:59.012Z,15.00
2023-02-22T17:39:02.034Z,14.90
2023-02-22T17:41:07.421Z,15.00
2023-02-22T17:43:12.508Z,14.90
2023-02-22T17:45:15.411Z,14.90
2023-02-22T17:47:18.524Z,14.90
2023-02-22T17:49:22.606Z,14.90
2023-02-22T17:51:27.880Z,14.80
2023-02-22T17:53:30.652Z,14.70
2023-02-22T17:55:34.829Z,14.60
2023-02-22T17:57:39.755Z,14.40
2023-02-22T17:59:42.507Z,14.40
2023-02-22T18:01:45.266Z,14.40
2023-02-22T18:03:47.977Z,14.20
2023-02-22T18:05:56.004Z,14.10
2023-02-22T18:08:02.015Z,14.10
2023-02-22T18:10:05.528Z,14.00
2023-02-22T18:12:08.323Z,14.00
2023-02-22T18:14:12.183Z,14.00
2023-02-22T18:16:16.215Z,14.00
2023-02-22T18:18:19.268Z,14.10
2023-02-22T18:20:30.919Z,14.10
2023-02-22T18:22:35.027Z,14.10
2023-02-22T18:24:37.910Z,14.10
2023-02-22T18:26:40.664Z,14.10
2023-02-22T18:28:43.808Z,14.10
2023-02-22T18:30:46.583Z,14.10
2023-02-22T18:32:49.323Z,13.90
2023-02-22T18:34:52.153Z,13.80
2023-02-22T18:36:55.271Z,13.70
2023-02-22T18:38:59.356Z,13.60
2023-02-22T18:41:03.294Z,13.50
2023-02-22T18:43:06.110Z,13.50
2023-02-22T18:45:09.261Z,13.50
2023-02-22T18:47:12.006Z,13.50
2023-02-22T18:49:14.893Z,13.40
2023-02-22T18:51:18.604Z,13.30
2023-02-22T18:53:21.364Z,13.20
2023-02-22T18:55:25.526Z,13.30
2023-02-22T18:57:28.441Z,13.30
2023-02-22T18:59:31.351Z,13.10
2023-02-22T19:01:38.845Z,13.00
2023-02-22T19:03:41.908Z,13.20
2023-02-22T19:05:44.590Z,13.10
2023-02-22T19:07:47.662Z,13.00
2023-02-22T19:09:51.379Z,13.10
2023-02-22T19:11:55.448Z,13.10
2023-02-22T19:13:59.534Z,13.20
2023-02-22T19:16:03.968Z,13.30
2023-02-22T19:18:06.877Z,13.40
2023-02-22T19:20:10.687Z,13.40
2023-02-22T19:22:16.302Z,13.40
2023-02-22T19:24:20.478Z,13.40
2023-02-22T19:26:25.238Z,13.30
2023-02-22T19:28:33.945Z,13.40
2023-02-22T19:30:36.852Z,13.40
2023-02-22T19:32:44.569Z,13.40
2023-02-22T19:34:47.825Z,13.40
2023-02-22T19:36:51.054Z,13.30
2023-02-22T19:38:53.934Z,13.30
2023-02-22T19:40:56.693Z,13.20
2023-02-22T19:42:59.374Z,13.10
2023-02-22T19:45:03.503Z,13.10
2023-02-22T19:47:09.090Z,13.20
2023-02-22T19:49:11.864Z,13.20
2023-02-22T19:51:16.436Z,13.10
2023-02-22T19:53:19.486Z,13.20
2023-02-22T19:55:22.224Z,13.20
2023-02-22T19:57:25.062Z,13.20
2023-02-22T19:59:28.304Z,13.20
2023-02-22T20:01:33.923Z,13.10
2023-02-22T20:03:38.587Z,13.20
2023-02-22T20:05:42.210Z,13.00
2023-02-22T20:07:45.076Z,13.00
2023-02-22T20:09:49.653Z,13.00
2023-02-22T20:11:52.646Z,13.10
2023-02-22T20:13:56.413Z,13.00
2023-02-22T20:15:59.193Z,13.00
2023-02-22T20:18:03.209Z,12.90
2023-02-22T20:20:07.361Z,12.90
2023-02-22T20:22:10.207Z,12.90
2023-02-22T20:24:15.049Z,12.90
2023-02-22T20:26:19.593Z,12.90
2023-02-22T20:28:22.603Z,12.90
2023-02-22T20:30:25.466Z,12.90
2023-02-22T20:32:30.327Z,12.90
2023-02-22T20:34:36.146Z,13.00
2023-02-22T20:36:40.236Z,13.00
2023-02-22T20:38:49.112Z,12.80
2023-02-22T20:40:51.886Z,12.70
2023-02-22T20:42:56.221Z,12.70
2023-02-22T20:45:01.815Z,12.70
2023-02-22T20:47:06.112Z,12.60
2023-02-22T20:49:11.113Z,12.60
2023-02-22T20:51:16.658Z,12.60
2023-02-22T20:53:19.578Z,12.60
2023-02-22T20:55:22.366Z,12.60
2023-02-22T20:57:25.111Z,12.60
2023-02-22T20:59:28.914Z,12.60
2023-02-22T21:01:32.370Z,12.50
2023-02-22T21:03:35.506Z,12.50
2023-02-22T21:05:42.867Z,12.60
2023-02-22T21:07:46.883Z,12.50
2023-02-22T21:09:49.828Z,12.30
2023-02-22T21:11:52.587Z,12.40
2023-02-22T21:13:55.636Z,12.50
2023-02-22T21:15:58.349Z,12.50
2023-02-22T21:18:01.140Z,12.40
2023-02-22T21:20:11.943Z,12.30
2023-02-22T21:22:14.699Z,12.30
2023-02-22T21:24:18.759Z,12.30
2023-02-22T21:26:24.176Z,12.20
2023-02-22T21:28:32.379Z,12.10
2023-02-22T21:30:45.661Z,12.20
2023-02-22T21:32:53.802Z,12.30
2023-02-22T21:34:56.556Z,12.20
2023-02-22T21:36:59.745Z,12.30
2023-02-22T21:39:10.510Z,12.20
2023-02-22T21:41:16.524Z,12.20
2023-02-22T21:43:19.318Z,12.30
2023-02-22T21:45:24.001Z,12.30
2023-02-22T21:47:27.690Z,12.30
2023-02-22T21:49:30.603Z,12.30
2023-02-22T21:51:34.440Z,12.20
2023-02-22T21:53:37.193Z,12.10
2023-02-22T21:55:40.862Z,12.10
2023-02-22T21:57:44.979Z,12.20
2023-02-22T21:59:48.450Z,12.00
2023-02-22T22:01:55.582Z,12.00
2023-02-22T22:04:00.382Z,11.90
2023-02-22T22:06:09.792Z,12.00
2023-02-22T22:08:19.201Z,12.10
2023-02-22T22:10:27.174Z,12.10
2023-02-22T22:12:38.692Z,12.10
2023-02-22T22:14:43.334Z,12.10
2023-02-22T22:16:48.535Z,12.00
2023-02-22T22:18:51.229Z,12.00
2023-02-22T22:20:54.056Z,12.00
2023-02-22T22:22:56.851Z,12.00
2023-02-22T22:24:59.658Z,12.00
2023-02-22T22:27:04.902Z,12.00
2023-02-22T22:29:10.313Z,11.90
2023-02-22T22:31:16.118Z,11.90
2023-02-22T22:33:19.029Z,12.00
2023-02-22T22:35:22.662Z,12.00
2023-02-22T22:37:25.560Z,12.00
2023-02-22T22:39:28.690Z,11.90
2023-02-22T22:41:31.366Z,11.70
2023-02-22T22:43:36.104Z,11.70
2023-02-22T22:45:38.854Z,11.80
2023-02-22T22:47:45.901Z,11.80
2023-02-22T22:49:50.159Z,11.60
2023-02-22T22:51:54.410Z,11.70
2023-02-22T22:53:59.214Z,11.70
2023-02-22T22:56:04.629Z,11.70
2023-02-22T22:58:09.939Z,11.60
2023-02-22T23:00:31.927Z,11.70
2023-02-22T23:02:34.718Z,11.70
2023-02-22T23:04:38.919Z,11.70
2023-02-22T23:06:44.043Z,11.60
2023-02-22T23:08:46.759Z,11.50
2023-02-22T23:10:49.481Z,11.50
2023-02-22T23:12:53.641Z,11.50
2023-02-22T23:14:58.294Z,11.50
2023-02-22T23:17:03.414Z,11.50
2023-02-22T23:19:08.743Z,11.50
2023-02-22T23:21:12.922Z,11.50
2023-02-22T23:23:15.647Z,11.50
2023-02-22T23:25:19.725Z,11.50
2023-02-22T23:27:23.664Z,11.30
2023-02-22T23:29:27.057Z,11.30
2023-02-22T23:31:31.957Z,11.30
2023-02-22T23:33:34.738Z,11.40
2023-02-22T23:35:37.500Z,11.40
2023-02-22T23:37:41.704Z,11.30
2023-02-22T23:39:44.368Z,11.40
2023-02-22T23:41:47.142Z,11.50
2023-02-22T23:43:51.680Z,11.50
2023-02-22T23:45:57.062Z,11.60
2023-02-22T23:48:01.581Z,11.60
2023-02-22T23:50:13.427Z,11.70
2023-02-22T23:52:24.039Z,11.70
2023-02-22T23:54:35.942Z,11.80
2023-02-22T23:56:40.440Z,11.70
2023-02-22T23:58:46.978Z,11.70
